sensor_id;sensor_type;location;lat;lon;timestamp;P1;durP1;ratioP1;P2;durP2;ratioP2
19024;SDS011;9645;51.448;6.260;2023-07-31T00:01:23;22.80;;;5.03;;
19024;SDS011;9645;51.448;6.260;2023-07-31T00:03:50;10.43;;;4.30;;
19024;SDS011;9645;51.448;6.260;2023-07-31T00:06:16;17.90;;;5.43;;
19024;SDS011;9645;51.448;6.260;2023-07-31T00:08:43;24.03;;;4.70;;
19024;SDS011;9645;51.448;6.260;2023-07-31T00:11:10;18.83;;;4.80;;
19024;SDS011;9645;51.448;6.260;2023-07-31T00:13:37;12.93;;;4.70;;
19024;SDS011;9645;51.448;6.260;2023-07-31T00:16:05;13.57;;;5.00;;
19024;SDS011;9645;51.448;6.260;2023-07-31T00:18:32;20.50;;;5.90;;
19024;SDS011;9645;51.448;6.260;2023-07-31T00:20:59;14.80;;;4.60;;
19024;SDS011;9645;51.448;6.260;2023-07-31T00:23:26;26.60;;;5.77;;
19024;SDS011;9645;51.448;6.260;2023-07-31T00:25:53;25.73;;;5.30;;
19024;SDS011;9645;51.448;6.260;2023-07-31T00:28:20;15.87;;;5.90;;
19024;SDS011;9645;51.448;6.260;2023-07-31T00:30:47;14.93;;;5.27;;
19024;SDS011;9645;51.448;6.260;2023-07-31T00:33:15;16.40;;;4.80;;
19024;SDS011;9645;51.448;6.260;2023-07-31T00:35:42;16.83;;;5.20;;
19024;SDS011;9645;51.448;6.260;2023-07-31T00:38:09;11.90;;;4.73;;
19024;SDS011;9645;51.448;6.260;2023-07-31T00:40:36;23.20;;;4.60;;
19024;SDS011;9645;51.448;6.260;2023-07-31T00:43:03;13.90;;;5.00;;
19024;SDS011;9645;51.448;6.260;2023-07-31T00:45:30;13.43;;;4.67;;
19024;SDS011;9645;51.448;6.260;2023-07-31T00:47:58;15.53;;;4.97;;
19024;SDS011;9645;51.448;6.260;2023-07-31T00:50:27;16.30;;;5.23;;
19024;SDS011;9645;51.448;6.260;2023-07-31T00:52:55;20.73;;;4.33;;
19024;SDS011;9645;51.448;6.260;2023-07-31T00:55:22;14.77;;;4.63;;
19024;SDS011;9645;51.448;6.260;2023-07-31T00:57:49;11.37;;;4.00;;
19024;SDS011;9645;51.448;6.260;2023-07-31T01:00:20;9.00;;;3.70;;
19024;SDS011;9645;51.448;6.260;2023-07-31T01:02:48;20.60;;;4.53;;
19024;SDS011;9645;51.448;6.260;2023-07-31T01:05:15;17.83;;;4.17;;
19024;SDS011;9645;51.448;6.260;2023-07-31T01:07:45;11.53;;;4.23;;
19024;SDS011;9645;51.448;6.260;2023-07-31T01:10:18;9.87;;;4.37;;
19024;SDS011;9645;51.448;6.260;2023-07-31T01:12:48;18.10;;;4.50;;
19024;SDS011;9645;51.448;6.260;2023-07-31T01:15:17;16.33;;;4.40;;
19024;SDS011;9645;51.448;6.260;2023-07-31T01:17:44;16.97;;;3.83;;
19024;SDS011;9645;51.448;6.260;2023-07-31T01:20:21;14.70;;;4.00;;
19024;SDS011;9645;51.448;6.260;2023-07-31T01:23:05;16.80;;;4.00;;
19024;SDS011;9645;51.448;6.260;2023-07-31T01:25:59;17.40;;;4.20;;
19024;SDS011;9645;51.448;6.260;2023-07-31T01:28:33;10.07;;;4.10;;
19024;SDS011;9645;51.448;6.260;2023-07-31T01:31:06;13.57;;;4.07;;
19024;SDS011;9645;51.448;6.260;2023-07-31T01:33:36;9.80;;;3.33;;
19024;SDS011;9645;51.448;6.260;2023-07-31T01:36:04;12.37;;;3.30;;
19024;SDS011;9645;51.448;6.260;2023-07-31T01:38:32;12.50;;;4.30;;
19024;SDS011;9645;51.448;6.260;2023-07-31T01:41:00;12.20;;;4.80;;
19024;SDS011;9645;51.448;6.260;2023-07-31T01:43:28;10.53;;;3.90;;
19024;SDS011;9645;51.448;6.260;2023-07-31T01:45:56;14.93;;;3.63;;
19024;SDS011;9645;51.448;6.260;2023-07-31T01:48:23;11.70;;;3.87;;
19024;SDS011;9645;51.448;6.260;2023-07-31T01:50:49;12.13;;;3.30;;
19024;SDS011;9645;51.448;6.260;2023-07-31T01:53:16;8.70;;;3.93;;
19024;SDS011;9645;51.448;6.260;2023-07-31T01:55:43;18.63;;;4.70;;
19024;SDS011;9645;51.448;6.260;2023-07-31T01:58:12;14.87;;;3.73;;
19024;SDS011;9645;51.448;6.260;2023-07-31T02:00:39;11.93;;;3.83;;
19024;SDS011;9645;51.448;6.260;2023-07-31T02:03:05;8.70;;;3.90;;
19024;SDS011;9645;51.448;6.260;2023-07-31T02:05:32;18.10;;;4.50;;
19024;SDS011;9645;51.448;6.260;2023-07-31T02:07:59;14.00;;;3.90;;
19024;SDS011;9645;51.448;6.260;2023-07-31T02:10:26;12.90;;;4.03;;
19024;SDS011;9645;51.448;6.260;2023-07-31T02:12:53;11.93;;;3.40;;
19024;SDS011;9645;51.448;6.260;2023-07-31T02:15:22;12.87;;;4.13;;
19024;SDS011;9645;51.448;6.260;2023-07-31T02:17:48;10.17;;;3.90;;
19024;SDS011;9645;51.448;6.260;2023-07-31T02:20:15;13.33;;;5.13;;
19024;SDS011;9645;51.448;6.260;2023-07-31T02:22:42;20.73;;;4.33;;
19024;SDS011;9645;51.448;6.260;2023-07-31T02:25:09;16.90;;;4.37;;
19024;SDS011;9645;51.448;6.260;2023-07-31T02:27:36;13.13;;;3.80;;
19024;SDS011;9645;51.448;6.260;2023-07-31T02:30:03;21.40;;;5.13;;
19024;SDS011;9645;51.448;6.260;2023-07-31T02:32:32;16.03;;;4.63;;
19024;SDS011;9645;51.448;6.260;2023-07-31T02:34:59;25.33;;;4.47;;
19024;SDS011;9645;51.448;6.260;2023-07-31T02:37:26;16.43;;;4.10;;
19024;SDS011;9645;51.448;6.260;2023-07-31T02:39:54;12.00;;;4.07;;
19024;SDS011;9645;51.448;6.260;2023-07-31T02:42:21;21.93;;;4.13;;
19024;SDS011;9645;51.448;6.260;2023-07-31T02:44:48;21.00;;;3.60;;
19024;SDS011;9645;51.448;6.260;2023-07-31T02:47:17;16.17;;;4.43;;
19024;SDS011;9645;51.448;6.260;2023-07-31T02:49:45;22.77;;;5.77;;
19024;SDS011;9645;51.448;6.260;2023-07-31T02:52:12;20.70;;;4.80;;
19024;SDS011;9645;51.448;6.260;2023-07-31T02:54:39;16.00;;;4.30;;
19024;SDS011;9645;51.448;6.260;2023-07-31T02:57:06;12.40;;;4.07;;
19024;SDS011;9645;51.448;6.260;2023-07-31T02:59:33;18.53;;;4.10;;
19024;SDS011;9645;51.448;6.260;2023-07-31T03:02:00;12.93;;;4.23;;
19024;SDS011;9645;51.448;6.260;2023-07-31T03:04:27;13.53;;;4.00;;
19024;SDS011;9645;51.448;6.260;2023-07-31T03:06:55;19.37;;;6.10;;
19024;SDS011;9645;51.448;6.260;2023-07-31T03:09:22;17.33;;;4.20;;
19024;SDS011;9645;51.448;6.260;2023-07-31T03:11:49;10.17;;;3.93;;
19024;SDS011;9645;51.448;6.260;2023-07-31T03:14:16;20.80;;;3.80;;
19024;SDS011;9645;51.448;6.260;2023-07-31T03:16:43;18.90;;;5.33;;
19024;SDS011;9645;51.448;6.260;2023-07-31T03:19:10;13.93;;;4.30;;
19024;SDS011;9645;51.448;6.260;2023-07-31T03:21:37;17.30;;;4.20;;
19024;SDS011;9645;51.448;6.260;2023-07-31T03:24:05;21.03;;;4.00;;
19024;SDS011;9645;51.448;6.260;2023-07-31T03:26:32;16.53;;;3.87;;
19024;SDS011;9645;51.448;6.260;2023-07-31T03:29:00;19.60;;;4.80;;
19024;SDS011;9645;51.448;6.260;2023-07-31T03:31:27;14.50;;;4.03;;
19024;SDS011;9645;51.448;6.260;2023-07-31T03:33:54;19.80;;;5.07;;
19024;SDS011;9645;51.448;6.260;2023-07-31T03:36:21;16.17;;;4.60;;
19024;SDS011;9645;51.448;6.260;2023-07-31T03:38:48;14.13;;;4.43;;
19024;SDS011;9645;51.448;6.260;2023-07-31T03:41:16;20.07;;;4.33;;
19024;SDS011;9645;51.448;6.260;2023-07-31T03:43:43;22.50;;;4.30;;
19024;SDS011;9645;51.448;6.260;2023-07-31T03:46:11;20.20;;;4.33;;
19024;SDS011;9645;51.448;6.260;2023-07-31T03:48:38;18.50;;;4.50;;
19024;SDS011;9645;51.448;6.260;2023-07-31T03:51:05;20.03;;;3.80;;
19024;SDS011;9645;51.448;6.260;2023-07-31T03:53:32;12.70;;;4.20;;
19024;SDS011;9645;51.448;6.260;2023-07-31T03:55:59;12.83;;;4.20;;
19024;SDS011;9645;51.448;6.260;2023-07-31T03:58:27;13.20;;;4.47;;
19024;SDS011;9645;51.448;6.260;2023-07-31T04:00:54;9.10;;;4.00;;
19024;SDS011;9645;51.448;6.260;2023-07-31T04:03:21;13.87;;;4.20;;
19024;SDS011;9645;51.448;6.260;2023-07-31T04:05:48;15.70;;;4.80;;
19024;SDS011;9645;51.448;6.260;2023-07-31T04:08:15;15.83;;;4.30;;
19024;SDS011;9645;51.448;6.260;2023-07-31T04:10:42;15.10;;;5.17;;
19024;SDS011;9645;51.448;6.260;2023-07-31T04:13:09;17.23;;;5.67;;
19024;SDS011;9645;51.448;6.260;2023-07-31T04:15:37;28.23;;;4.43;;
19024;SDS011;9645;51.448;6.260;2023-07-31T04:18:04;22.17;;;4.70;;
19024;SDS011;9645;51.448;6.260;2023-07-31T04:20:31;11.37;;;3.90;;
19024;SDS011;9645;51.448;6.260;2023-07-31T04:22:58;16.03;;;4.70;;
19024;SDS011;9645;51.448;6.260;2023-07-31T04:25:25;18.20;;;4.77;;
19024;SDS011;9645;51.448;6.260;2023-07-31T04:27:52;17.83;;;4.83;;
19024;SDS011;9645;51.448;6.260;2023-07-31T04:30:19;24.50;;;4.73;;
19024;SDS011;9645;51.448;6.260;2023-07-31T04:32:47;11.23;;;4.40;;
19024;SDS011;9645;51.448;6.260;2023-07-31T04:35:14;12.00;;;4.10;;
19024;SDS011;9645;51.448;6.260;2023-07-31T04:37:41;12.00;;;4.33;;
19024;SDS011;9645;51.448;6.260;2023-07-31T04:40:10;9.03;;;3.73;;
19024;SDS011;9645;51.448;6.260;2023-07-31T04:42:37;11.73;;;4.60;;
19024;SDS011;9645;51.448;6.260;2023-07-31T04:45:04;15.00;;;4.27;;
19024;SDS011;9645;51.448;6.260;2023-07-31T04:47:32;10.43;;;4.30;;
19024;SDS011;9645;51.448;6.260;2023-07-31T04:50:00;12.27;;;4.70;;
19024;SDS011;9645;51.448;6.260;2023-07-31T04:52:27;17.77;;;4.70;;
19024;SDS011;9645;51.448;6.260;2023-07-31T04:54:54;12.60;;;4.30;;
19024;SDS011;9645;51.448;6.260;2023-07-31T04:57:21;11.97;;;3.83;;
19024;SDS011;9645;51.448;6.260;2023-07-31T04:59:48;21.23;;;4.93;;
19024;SDS011;9645;51.448;6.260;2023-07-31T05:02:15;10.47;;;4.83;;
19024;SDS011;9645;51.448;6.260;2023-07-31T05:04:42;12.90;;;5.00;;
19024;SDS011;9645;51.448;6.260;2023-07-31T05:07:10;25.03;;;4.60;;
19024;SDS011;9645;51.448;6.260;2023-07-31T05:09:37;10.67;;;4.70;;
19024;SDS011;9645;51.448;6.260;2023-07-31T05:12:05;16.13;;;5.27;;
19024;SDS011;9645;51.448;6.260;2023-07-31T05:14:32;11.17;;;4.63;;
19024;SDS011;9645;51.448;6.260;2023-07-31T05:16:59;10.47;;;4.43;;
19024;SDS011;9645;51.448;6.260;2023-07-31T05:19:26;10.20;;;4.80;;
19024;SDS011;9645;51.448;6.260;2023-07-31T05:21:53;11.03;;;4.80;;
19024;SDS011;9645;51.448;6.260;2023-07-31T05:24:21;12.80;;;4.47;;
19024;SDS011;9645;51.448;6.260;2023-07-31T05:26:48;17.40;;;5.00;;
19024;SDS011;9645;51.448;6.260;2023-07-31T05:29:15;12.80;;;4.80;;
19024;SDS011;9645;51.448;6.260;2023-07-31T05:31:42;7.37;;;4.17;;
19024;SDS011;9645;51.448;6.260;2023-07-31T05:34:09;12.87;;;4.37;;
19024;SDS011;9645;51.448;6.260;2023-07-31T05:36:36;7.90;;;4.33;;
19024;SDS011;9645;51.448;6.260;2023-07-31T05:39:06;8.63;;;4.43;;
19024;SDS011;9645;51.448;6.260;2023-07-31T05:41:35;14.63;;;4.53;;
19024;SDS011;9645;51.448;6.260;2023-07-31T05:44:02;14.77;;;4.70;;
19024;SDS011;9645;51.448;6.260;2023-07-31T05:46:29;11.50;;;4.40;;
19024;SDS011;9645;51.448;6.260;2023-07-31T05:48:57;10.53;;;4.20;;
19024;SDS011;9645;51.448;6.260;2023-07-31T05:51:25;8.80;;;4.63;;
19024;SDS011;9645;51.448;6.260;2023-07-31T05:53:52;14.97;;;5.37;;
19024;SDS011;9645;51.448;6.260;2023-07-31T05:56:19;10.23;;;4.80;;
19024;SDS011;9645;51.448;6.260;2023-07-31T05:58:48;12.00;;;4.50;;
19024;SDS011;9645;51.448;6.260;2023-07-31T06:01:15;10.77;;;5.40;;
19024;SDS011;9645;51.448;6.260;2023-07-31T06:03:43;9.97;;;5.23;;
19024;SDS011;9645;51.448;6.260;2023-07-31T06:06:10;8.93;;;4.57;;
19024;SDS011;9645;51.448;6.260;2023-07-31T06:08:38;12.40;;;5.30;;
19024;SDS011;9645;51.448;6.260;2023-07-31T06:11:06;18.53;;;5.00;;
19024;SDS011;9645;51.448;6.260;2023-07-31T06:13:34;9.97;;;5.40;;
19024;SDS011;9645;51.448;6.260;2023-07-31T06:16:02;9.83;;;4.80;;
19024;SDS011;9645;51.448;6.260;2023-07-31T06:18:31;9.13;;;4.20;;
19024;SDS011;9645;51.448;6.260;2023-07-31T06:20:58;8.50;;;4.53;;
19024;SDS011;9645;51.448;6.260;2023-07-31T06:23:25;7.70;;;4.27;;
19024;SDS011;9645;51.448;6.260;2023-07-31T06:25:52;10.87;;;4.87;;
19024;SDS011;9645;51.448;6.260;2023-07-31T06:28:19;10.57;;;4.60;;
19024;SDS011;9645;51.448;6.260;2023-07-31T06:30:46;11.87;;;4.60;;
19024;SDS011;9645;51.448;6.260;2023-07-31T06:33:14;12.73;;;4.63;;
19024;SDS011;9645;51.448;6.260;2023-07-31T06:35:42;9.90;;;4.50;;
19024;SDS011;9645;51.448;6.260;2023-07-31T06:38:09;10.60;;;4.93;;
19024;SDS011;9645;51.448;6.260;2023-07-31T06:40:36;16.43;;;4.50;;
19024;SDS011;9645;51.448;6.260;2023-07-31T06:43:03;14.63;;;4.20;;
19024;SDS011;9645;51.448;6.260;2023-07-31T06:45:33;7.00;;;4.53;;
19024;SDS011;9645;51.448;6.260;2023-07-31T06:48:00;10.27;;;4.90;;
19024;SDS011;9645;51.448;6.260;2023-07-31T06:50:30;9.60;;;4.67;;
19024;SDS011;9645;51.448;6.260;2023-07-31T06:52:57;10.00;;;4.57;;
19024;SDS011;9645;51.448;6.260;2023-07-31T06:55:25;9.93;;;5.10;;
19024;SDS011;9645;51.448;6.260;2023-07-31T06:57:53;9.63;;;4.53;;
19024;SDS011;9645;51.448;6.260;2023-07-31T07:00:21;8.30;;;4.47;;
19024;SDS011;9645;51.448;6.260;2023-07-31T07:02:49;15.40;;;4.77;;
19024;SDS011;9645;51.448;6.260;2023-07-31T07:05:17;13.30;;;4.47;;
19024;SDS011;9645;51.448;6.260;2023-07-31T07:07:46;7.63;;;4.07;;
19024;SDS011;9645;51.448;6.260;2023-07-31T07:10:15;12.80;;;4.83;;
19024;SDS011;9645;51.448;6.260;2023-07-31T07:12:42;12.30;;;4.87;;
19024;SDS011;9645;51.448;6.260;2023-07-31T07:15:09;12.17;;;4.20;;
19024;SDS011;9645;51.448;6.260;2023-07-31T07:17:38;7.80;;;4.00;;
19024;SDS011;9645;51.448;6.260;2023-07-31T07:20:06;8.90;;;4.40;;
19024;SDS011;9645;51.448;6.260;2023-07-31T07:22:34;8.80;;;4.30;;
19024;SDS011;9645;51.448;6.260;2023-07-31T07:25:06;9.00;;;3.83;;
19024;SDS011;9645;51.448;6.260;2023-07-31T07:27:33;6.40;;;3.87;;
19024;SDS011;9645;51.448;6.260;2023-07-31T07:30:01;8.20;;;3.73;;
19024;SDS011;9645;51.448;6.260;2023-07-31T07:32:31;5.70;;;3.70;;
19024;SDS011;9645;51.448;6.260;2023-07-31T07:34:58;7.10;;;3.97;;
19024;SDS011;9645;51.448;6.260;2023-07-31T07:37:26;7.50;;;4.07;;
19024;SDS011;9645;51.448;6.260;2023-07-31T07:39:53;6.10;;;3.77;;
19024;SDS011;9645;51.448;6.260;2023-07-31T07:42:21;3.60;;;3.00;;
19024;SDS011;9645;51.448;6.260;2023-07-31T07:44:48;9.00;;;3.87;;
19024;SDS011;9645;51.448;6.260;2023-07-31T07:47:15;12.97;;;3.73;;
19024;SDS011;9645;51.448;6.260;2023-07-31T07:49:42;4.77;;;3.53;;
19024;SDS011;9645;51.448;6.260;2023-07-31T07:52:10;7.80;;;3.03;;
19024;SDS011;9645;51.448;6.260;2023-07-31T07:54:37;4.50;;;3.53;;
19024;SDS011;9645;51.448;6.260;2023-07-31T07:57:07;7.73;;;3.47;;
19024;SDS011;9645;51.448;6.260;2023-07-31T07:59:36;8.20;;;3.70;;
19024;SDS011;9645;51.448;6.260;2023-07-31T08:02:03;4.47;;;3.20;;
19024;SDS011;9645;51.448;6.260;2023-07-31T08:04:30;3.80;;;2.87;;
19024;SDS011;9645;51.448;6.260;2023-07-31T08:06:57;5.17;;;3.20;;
19024;SDS011;9645;51.448;6.260;2023-07-31T08:09:25;6.20;;;3.30;;
19024;SDS011;9645;51.448;6.260;2023-07-31T08:11:52;4.03;;;3.00;;
19024;SDS011;9645;51.448;6.260;2023-07-31T08:14:19;4.30;;;3.47;;
19024;SDS011;9645;51.448;6.260;2023-07-31T08:16:48;8.13;;;3.30;;
19024;SDS011;9645;51.448;6.260;2023-07-31T08:19:15;4.72;;;2.65;;
19024;SDS011;9645;51.448;6.260;2023-07-31T08:21:42;6.87;;;3.10;;
19024;SDS011;9645;51.448;6.260;2023-07-31T08:24:08;3.97;;;2.93;;
19024;SDS011;9645;51.448;6.260;2023-07-31T08:26:35;7.37;;;3.67;;
19024;SDS011;9645;51.448;6.260;2023-07-31T08:29:02;7.40;;;3.80;;
19024;SDS011;9645;51.448;6.260;2023-07-31T08:31:29;13.70;;;3.30;;
19024;SDS011;9645;51.448;6.260;2023-07-31T08:33:58;8.13;;;3.20;;
19024;SDS011;9645;51.448;6.260;2023-07-31T08:36:25;3.17;;;2.50;;
19024;SDS011;9645;51.448;6.260;2023-07-31T08:38:56;5.73;;;3.10;;
19024;SDS011;9645;51.448;6.260;2023-07-31T08:41:24;6.63;;;2.90;;
19024;SDS011;9645;51.448;6.260;2023-07-31T08:43:51;5.50;;;3.60;;
19024;SDS011;9645;51.448;6.260;2023-07-31T08:46:21;8.33;;;3.33;;
19024;SDS011;9645;51.448;6.260;2023-07-31T08:48:48;5.47;;;3.50;;
19024;SDS011;9645;51.448;6.260;2023-07-31T08:51:20;5.50;;;4.17;;
19024;SDS011;9645;51.448;6.260;2023-07-31T08:53:47;7.33;;;3.07;;
19024;SDS011;9645;51.448;6.260;2023-07-31T08:56:15;10.73;;;3.47;;
19024;SDS011;9645;51.448;6.260;2023-07-31T08:58:42;5.73;;;3.47;;
19024;SDS011;9645;51.448;6.260;2023-07-31T09:01:11;8.87;;;3.87;;
19024;SDS011;9645;51.448;6.260;2023-07-31T09:03:39;6.13;;;2.93;;
19024;SDS011;9645;51.448;6.260;2023-07-31T09:06:07;12.30;;;3.93;;
19024;SDS011;9645;51.448;6.260;2023-07-31T09:08:36;4.80;;;3.40;;
19024;SDS011;9645;51.448;6.260;2023-07-31T09:11:08;18.00;;;3.70;;
19024;SDS011;9645;51.448;6.260;2023-07-31T09:13:35;6.67;;;3.27;;
19024;SDS011;9645;51.448;6.260;2023-07-31T09:16:03;6.70;;;3.23;;
19024;SDS011;9645;51.448;6.260;2023-07-31T09:18:30;6.03;;;3.50;;
19024;SDS011;9645;51.448;6.260;2023-07-31T09:21:01;5.47;;;2.97;;
19024;SDS011;9645;51.448;6.260;2023-07-31T09:23:41;4.37;;;3.43;;
19024;SDS011;9645;51.448;6.260;2023-07-31T09:26:18;9.40;;;3.43;;
19024;SDS011;9645;51.448;6.260;2023-07-31T09:28:55;5.80;;;3.07;;
19024;SDS011;9645;51.448;6.260;2023-07-31T09:31:31;5.70;;;3.30;;
19024;SDS011;9645;51.448;6.260;2023-07-31T09:33:58;6.23;;;2.97;;
19024;SDS011;9645;51.448;6.260;2023-07-31T09:36:28;7.17;;;3.13;;
19024;SDS011;9645;51.448;6.260;2023-07-31T09:38:59;5.00;;;3.40;;
19024;SDS011;9645;51.448;6.260;2023-07-31T09:41:29;12.07;;;3.37;;
19024;SDS011;9645;51.448;6.260;2023-07-31T09:43:56;9.23;;;4.10;;
19024;SDS011;9645;51.448;6.260;2023-07-31T09:46:23;6.17;;;4.03;;
19024;SDS011;9645;51.448;6.260;2023-07-31T09:48:59;7.67;;;4.93;;
19024;SDS011;9645;51.448;6.260;2023-07-31T09:51:31;7.10;;;4.07;;
19024;SDS011;9645;51.448;6.260;2023-07-31T09:54:04;6.93;;;3.93;;
19024;SDS011;9645;51.448;6.260;2023-07-31T09:56:36;7.30;;;4.07;;
19024;SDS011;9645;51.448;6.260;2023-07-31T09:59:07;7.43;;;4.23;;
19024;SDS011;9645;51.448;6.260;2023-07-31T10:01:36;8.10;;;3.83;;
19024;SDS011;9645;51.448;6.260;2023-07-31T10:04:05;5.77;;;3.67;;
19024;SDS011;9645;51.448;6.260;2023-07-31T10:06:33;9.60;;;3.50;;
19024;SDS011;9645;51.448;6.260;2023-07-31T10:09:01;6.97;;;3.60;;
19024;SDS011;9645;51.448;6.260;2023-07-31T10:11:30;8.20;;;3.97;;
19024;SDS011;9645;51.448;6.260;2023-07-31T10:14:02;6.17;;;4.10;;
19024;SDS011;9645;51.448;6.260;2023-07-31T10:16:31;5.20;;;3.40;;
19024;SDS011;9645;51.448;6.260;2023-07-31T10:18:58;4.83;;;3.40;;
19024;SDS011;9645;51.448;6.260;2023-07-31T10:21:26;7.33;;;3.60;;
19024;SDS011;9645;51.448;6.260;2023-07-31T10:23:53;4.37;;;3.23;;
19024;SDS011;9645;51.448;6.260;2023-07-31T10:26:21;11.60;;;3.80;;
19024;SDS011;9645;51.448;6.260;2023-07-31T10:28:52;6.77;;;3.43;;
19024;SDS011;9645;51.448;6.260;2023-07-31T10:31:20;16.13;;;3.57;;
19024;SDS011;9645;51.448;6.260;2023-07-31T10:33:48;5.33;;;3.20;;
19024;SDS011;9645;51.448;6.260;2023-07-31T10:36:17;10.57;;;4.30;;
19024;SDS011;9645;51.448;6.260;2023-07-31T10:38:45;6.93;;;3.43;;
19024;SDS011;9645;51.448;6.260;2023-07-31T10:41:14;4.80;;;3.30;;
19024;SDS011;9645;51.448;6.260;2023-07-31T10:43:42;5.73;;;3.07;;
19024;SDS011;9645;51.448;6.260;2023-07-31T10:46:11;4.07;;;2.83;;
19024;SDS011;9645;51.448;6.260;2023-07-31T10:48:40;7.23;;;3.30;;
19024;SDS011;9645;51.448;6.260;2023-07-31T10:51:08;4.70;;;3.10;;
19024;SDS011;9645;51.448;6.260;2023-07-31T10:53:37;5.23;;;3.30;;
19024;SDS011;9645;51.448;6.260;2023-07-31T10:56:08;6.33;;;3.10;;
19024;SDS011;9645;51.448;6.260;2023-07-31T10:58:38;6.73;;;2.87;;
19024;SDS011;9645;51.448;6.260;2023-07-31T11:01:05;5.87;;;2.67;;
19024;SDS011;9645;51.448;6.260;2023-07-31T11:03:45;6.40;;;3.07;;
19024;SDS011;9645;51.448;6.260;2023-07-31T11:06:13;4.13;;;2.80;;
19024;SDS011;9645;51.448;6.260;2023-07-31T11:08:41;4.77;;;2.40;;
19024;SDS011;9645;51.448;6.260;2023-07-31T11:11:10;4.80;;;2.60;;
19024;SDS011;9645;51.448;6.260;2023-07-31T11:13:42;3.50;;;2.80;;
19024;SDS011;9645;51.448;6.260;2023-07-31T11:16:11;5.43;;;2.70;;
19024;SDS011;9645;51.448;6.260;2023-07-31T11:18:39;10.03;;;2.90;;
19024;SDS011;9645;51.448;6.260;2023-07-31T11:21:08;4.67;;;3.27;;
19024;SDS011;9645;51.448;6.260;2023-07-31T11:23:39;6.10;;;2.90;;
19024;SDS011;9645;51.448;6.260;2023-07-31T11:26:06;4.57;;;2.53;;
19024;SDS011;9645;51.448;6.260;2023-07-31T11:28:34;2.63;;;2.20;;
19024;SDS011;9645;51.448;6.260;2023-07-31T11:31:01;6.57;;;3.10;;
19024;SDS011;9645;51.448;6.260;2023-07-31T11:33:28;4.93;;;2.80;;
19024;SDS011;9645;51.448;6.260;2023-07-31T11:35:56;6.93;;;3.33;;
19024;SDS011;9645;51.448;6.260;2023-07-31T11:38:25;5.30;;;3.03;;
19024;SDS011;9645;51.448;6.260;2023-07-31T11:40:53;4.60;;;2.73;;
19024;SDS011;9645;51.448;6.260;2023-07-31T11:43:21;4.63;;;3.03;;
19024;SDS011;9645;51.448;6.260;2023-07-31T11:45:50;8.37;;;3.00;;
19024;SDS011;9645;51.448;6.260;2023-07-31T11:48:18;5.70;;;3.10;;
19024;SDS011;9645;51.448;6.260;2023-07-31T11:50:47;8.63;;;3.07;;
19024;SDS011;9645;51.448;6.260;2023-07-31T11:53:16;3.63;;;2.57;;
19024;SDS011;9645;51.448;6.260;2023-07-31T11:55:47;5.07;;;2.67;;
19024;SDS011;9645;51.448;6.260;2023-07-31T11:58:15;5.20;;;2.50;;
19024;SDS011;9645;51.448;6.260;2023-07-31T12:00:44;4.90;;;2.60;;
19024;SDS011;9645;51.448;6.260;2023-07-31T12:03:11;2.50;;;2.30;;
19024;SDS011;9645;51.448;6.260;2023-07-31T12:05:39;3.33;;;2.80;;
19024;SDS011;9645;51.448;6.260;2023-07-31T12:08:09;2.53;;;2.30;;
19024;SDS011;9645;51.448;6.260;2023-07-31T12:10:37;5.67;;;2.83;;
19024;SDS011;9645;51.448;6.260;2023-07-31T12:13:07;2.60;;;2.40;;
19024;SDS011;9645;51.448;6.260;2023-07-31T12:15:39;3.30;;;2.70;;
19024;SDS011;9645;51.448;6.260;2023-07-31T12:18:08;5.93;;;2.70;;
19024;SDS011;9645;51.448;6.260;2023-07-31T12:20:40;4.57;;;2.40;;
19024;SDS011;9645;51.448;6.260;2023-07-31T12:23:19;5.57;;;2.60;;
19024;SDS011;9645;51.448;6.260;2023-07-31T12:25:59;3.30;;;2.60;;
19024;SDS011;9645;51.448;6.260;2023-07-31T12:28:29;4.83;;;3.27;;
19024;SDS011;9645;51.448;6.260;2023-07-31T12:30:57;3.60;;;2.60;;
19024;SDS011;9645;51.448;6.260;2023-07-31T12:33:30;18.13;;;3.13;;
19024;SDS011;9645;51.448;6.260;2023-07-31T12:36:00;5.03;;;3.00;;
19024;SDS011;9645;51.448;6.260;2023-07-31T12:38:28;2.90;;;2.60;;
19024;SDS011;9645;51.448;6.260;2023-07-31T12:40:55;8.97;;;3.40;;
19024;SDS011;9645;51.448;6.260;2023-07-31T12:43:22;9.70;;;3.23;;
19024;SDS011;9645;51.448;6.260;2023-07-31T12:45:50;8.27;;;3.40;;
19024;SDS011;9645;51.448;6.260;2023-07-31T12:48:17;10.17;;;4.00;;
19024;SDS011;9645;51.448;6.260;2023-07-31T12:50:44;7.73;;;3.23;;
19024;SDS011;9645;51.448;6.260;2023-07-31T12:53:11;5.50;;;3.30;;
19024;SDS011;9645;51.448;6.260;2023-07-31T12:55:38;12.73;;;3.97;;
19024;SDS011;9645;51.448;6.260;2023-07-31T12:58:05;7.80;;;3.97;;
19024;SDS011;9645;51.448;6.260;2023-07-31T13:00:32;5.33;;;3.20;;
19024;SDS011;9645;51.448;6.260;2023-07-31T13:03:01;7.20;;;3.50;;
19024;SDS011;9645;51.448;6.260;2023-07-31T13:05:28;7.07;;;3.57;;
19024;SDS011;9645;51.448;6.260;2023-07-31T13:07:55;8.97;;;4.00;;
19024;SDS011;9645;51.448;6.260;2023-07-31T13:10:22;11.70;;;4.43;;
19024;SDS011;9645;51.448;6.260;2023-07-31T13:12:51;6.77;;;3.57;;
19024;SDS011;9645;51.448;6.260;2023-07-31T13:15:18;8.13;;;4.90;;
19024;SDS011;9645;51.448;6.260;2023-07-31T13:17:46;9.83;;;4.70;;
19024;SDS011;9645;51.448;6.260;2023-07-31T13:20:14;9.60;;;4.50;;
19024;SDS011;9645;51.448;6.260;2023-07-31T13:22:43;6.37;;;3.67;;
19024;SDS011;9645;51.448;6.260;2023-07-31T13:25:10;8.73;;;4.07;;
19024;SDS011;9645;51.448;6.260;2023-07-31T13:27:37;10.90;;;4.47;;
19024;SDS011;9645;51.448;6.260;2023-07-31T13:30:22;9.83;;;4.37;;
19024;SDS011;9645;51.448;6.260;2023-07-31T13:32:48;9.67;;;4.70;;
19024;SDS011;9645;51.448;6.260;2023-07-31T13:35:17;12.07;;;4.50;;
19024;SDS011;9645;51.448;6.260;2023-07-31T13:37:44;9.97;;;4.90;;
19024;SDS011;9645;51.448;6.260;2023-07-31T13:40:11;9.97;;;4.90;;
19024;SDS011;9645;51.448;6.260;2023-07-31T13:42:38;7.03;;;4.17;;
19024;SDS011;9645;51.448;6.260;2023-07-31T13:45:05;16.70;;;3.93;;
19024;SDS011;9645;51.448;6.260;2023-07-31T13:47:32;9.67;;;4.20;;
19024;SDS011;9645;51.448;6.260;2023-07-31T13:49:59;10.20;;;4.20;;
19024;SDS011;9645;51.448;6.260;2023-07-31T13:52:28;9.10;;;4.50;;
19024;SDS011;9645;51.448;6.260;2023-07-31T13:54:55;9.63;;;4.33;;
19024;SDS011;9645;51.448;6.260;2023-07-31T13:57:21;16.90;;;4.43;;
19024;SDS011;9645;51.448;6.260;2023-07-31T13:59:49;5.70;;;3.73;;
19024;SDS011;9645;51.448;6.260;2023-07-31T14:02:16;9.87;;;4.63;;
19024;SDS011;9645;51.448;6.260;2023-07-31T14:04:43;6.83;;;3.90;;
19024;SDS011;9645;51.448;6.260;2023-07-31T14:07:09;10.63;;;4.57;;
19024;SDS011;9645;51.448;6.260;2023-07-31T14:09:38;10.97;;;4.90;;
19024;SDS011;9645;51.448;6.260;2023-07-31T14:12:05;10.33;;;4.97;;
19024;SDS011;9645;51.448;6.260;2023-07-31T14:14:32;11.03;;;4.27;;
19024;SDS011;9645;51.448;6.260;2023-07-31T14:17:00;11.90;;;4.63;;
19024;SDS011;9645;51.448;6.260;2023-07-31T14:19:27;8.97;;;4.63;;
19024;SDS011;9645;51.448;6.260;2023-07-31T14:21:54;11.23;;;4.30;;
19024;SDS011;9645;51.448;6.260;2023-07-31T14:24:21;13.23;;;4.57;;
19024;SDS011;9645;51.448;6.260;2023-07-31T14:26:50;9.87;;;4.27;;
19024;SDS011;9645;51.448;6.260;2023-07-31T14:29:17;13.57;;;4.73;;
19024;SDS011;9645;51.448;6.260;2023-07-31T14:31:46;15.73;;;4.60;;
19024;SDS011;9645;51.448;6.260;2023-07-31T14:34:13;8.70;;;4.63;;
19024;SDS011;9645;51.448;6.260;2023-07-31T14:36:41;7.10;;;4.17;;
19024;SDS011;9645;51.448;6.260;2023-07-31T14:39:09;9.03;;;4.60;;
19024;SDS011;9645;51.448;6.260;2023-07-31T14:41:38;7.67;;;4.30;;
19024;SDS011;9645;51.448;6.260;2023-07-31T14:44:07;8.37;;;4.00;;
19024;SDS011;9645;51.448;6.260;2023-07-31T14:46:34;8.93;;;4.93;;
19024;SDS011;9645;51.448;6.260;2023-07-31T14:49:01;13.93;;;4.90;;
19024;SDS011;9645;51.448;6.260;2023-07-31T14:51:28;8.73;;;4.30;;
19024;SDS011;9645;51.448;6.260;2023-07-31T14:53:54;8.90;;;4.20;;
19024;SDS011;9645;51.448;6.260;2023-07-31T14:56:21;9.53;;;5.10;;
19024;SDS011;9645;51.448;6.260;2023-07-31T14:58:48;16.53;;;5.27;;
19024;SDS011;9645;51.448;6.260;2023-07-31T15:01:17;17.50;;;5.27;;